Island City, Oregon
Current Conditions -  °F | °C
As of 7:15 AM on Friday 19 Dec 2014 (Local Time) from KLGD Reporting Station
Overcast Overcast  
Wind Chill: 32°   Ceiling: 2400
Heat Index: 41°   Visibility: 10mi
Dew Point: 30°   Wind: 18mph
Humidity: 65%   Direction: 190°S
Pressure: 29.92"   Gusts: NA
Location:  45.2284°N, 118.272°W
Report Text: KLGD 191515Z AUTO 19016KT 10SM BKN024 OVC034 05/M01 A2992 RMK AO1
Loading
Personal Weather Stations






























Interactive Weather Map New forecast layout! Learn more

10-Day Weather Forecast

Advertisements
Track Severe Weather on mobile